Boroughbridge, United Kingdom
Current Conditions -  °F | °C
As of 8:50 AM on Sunday 23 Nov 2014 (Local Time) from EGXD Reporting Station
Broken Clouds Broken Clouds  
Wind Chill: 45°   Ceiling: 7000
Heat Index: 45°   Visibility: 6mi
Dew Point: 43°   Wind: 1mph
Humidity: 93%   Direction: 270°W
Pressure: 30"   Gusts: NA
Location:  54.09°N, 1.4°W
Report Text: EGXD 230850Z AUTO 27001KT 9999 // SCT023/// BKN070/// 07/06 Q1016
Loading
Personal Weather Stations






























Interactive Weather Map New forecast layout! Learn more

10-Day Weather Forecast

Advertisements
Track Severe Weather on mobile